createdAt,value
2022-08-07T00:01:44.256Z,11.30
2022-08-07T00:04:06.119Z,11.22
2022-08-07T00:06:35.894Z,11.25
2022-08-07T00:09:16.311Z,11.25
2022-08-07T00:11:47.922Z,11.25
2022-08-07T00:14:21.870Z,11.18
2022-08-07T00:16:52.677Z,11.24
2022-08-07T00:19:21.323Z,11.23
2022-08-07T00:21:56.593Z,11.15
2022-08-07T00:24:29.080Z,11.13
2022-08-07T00:27:06.554Z,11.04
2022-08-07T00:29:37.145Z,11.11
2022-08-07T00:32:05.962Z,11.01
2022-08-07T00:34:33.713Z,10.93
2022-08-07T00:37:04.897Z,10.88
2022-08-07T00:39:32.713Z,10.86
2022-08-07T00:42:01.728Z,10.82
2022-08-07T00:44:33.298Z,10.92
2022-08-07T00:47:01.040Z,10.92
2022-08-07T00:50:16.872Z,10.90
2022-08-07T00:52:17.584Z,10.69
2022-08-07T00:54:46.852Z,10.68
2022-08-07T00:57:20.870Z,10.79
2022-08-07T00:59:49.190Z,10.54
2022-08-07T01:02:28.377Z,10.55
2022-08-07T01:04:58.700Z,10.46
2022-08-07T01:07:27.600Z,10.47
2022-08-07T01:10:05.776Z,10.36
2022-08-07T01:12:40.058Z,10.41
2022-08-07T01:15:20.549Z,10.35
2022-08-07T01:17:47.110Z,10.26
2022-08-07T01:20:16.761Z,10.28
2022-08-07T01:22:54.276Z,10.19
2022-08-07T01:25:55.146Z,10.14
2022-08-07T01:28:19.542Z,10.20
2022-08-07T01:30:51.343Z,10.27
2022-08-07T01:33:18.786Z,10.30
2022-08-07T01:35:53.082Z,10.29
2022-08-07T01:38:25.027Z,10.13
2022-08-07T01:40:56.566Z,10.08
2022-08-07T01:43:24.105Z,10.09
2022-08-07T01:45:54.514Z,10.00
2022-08-07T01:48:30.517Z,10.07
2022-08-07T01:51:08.175Z,10.04
2022-08-07T01:54:11.630Z,9.95
2022-08-07T01:56:55.240Z,9.99
2022-08-07T01:59:31.120Z,9.97
2022-08-07T02:02:12.165Z,9.96
2022-08-07T02:05:04.843Z,9.98
2022-08-07T02:07:49.893Z,9.91
2022-08-07T02:10:22.448Z,9.94
2022-08-07T02:12:51.157Z,9.86
2022-08-07T02:15:23.733Z,9.82
2022-08-07T02:17:54.856Z,9.85
2022-08-07T02:20:24.781Z,9.77
2022-08-07T02:23:03.965Z,9.74
2022-08-07T02:26:31.694Z,9.68
2022-08-07T02:28:24.428Z,9.79
2022-08-07T02:30:53.892Z,9.89
2022-08-07T02:33:22.913Z,9.76
2022-08-07T02:36:28.987Z,9.77
2022-08-07T02:38:38.764Z,9.77
2022-08-07T02:41:07.909Z,9.69
2022-08-07T02:43:39.753Z,9.71
2022-08-07T02:46:07.407Z,9.72
2022-08-07T02:48:34.483Z,9.69
2022-08-07T02:51:42.829Z,9.69
2022-08-07T02:54:07.783Z,9.84
2022-08-07T02:56:39.699Z,9.89
2022-08-07T02:59:11.671Z,9.84
2022-08-07T03:01:40.157Z,9.83
2022-08-07T03:04:12.580Z,9.72
2022-08-07T03:06:42.103Z,9.77
2022-08-07T03:09:13.734Z,9.88
2022-08-07T03:11:51.796Z,9.89
2022-08-07T03:14:24.613Z,10.08
2022-08-07T03:16:52.560Z,9.69
2022-08-07T03:19:20.191Z,9.72
2022-08-07T03:21:50.920Z,9.60
2022-08-07T03:24:26.931Z,9.56
2022-08-07T03:26:58.916Z,9.58
2022-08-07T03:29:30.223Z,9.55
2022-08-07T03:31:57.705Z,9.62
2022-08-07T03:34:28.701Z,9.69
2022-08-07T03:36:57.461Z,9.75
2022-08-07T03:40:00.045Z,9.76
2022-08-07T03:42:15.882Z,9.76
2022-08-07T03:44:47.353Z,9.69
2022-08-07T03:47:20.691Z,9.61
2022-08-07T03:49:52.383Z,9.93
2022-08-07T03:52:26.348Z,9.96
2022-08-07T03:55:06.123Z,9.69
2022-08-07T03:58:57.172Z,9.78
2022-08-07T04:00:29.217Z,9.79
2022-08-07T04:03:03.940Z,9.62
2022-08-07T04:05:40.871Z,9.75
2022-08-07T04:08:16.230Z,9.88
2022-08-07T04:10:54.865Z,9.90
2022-08-07T04:14:10.377Z,10.01
2022-08-07T04:16:31.220Z,10.12
2022-08-07T04:19:01.642Z,9.95
2022-08-07T04:21:33.391Z,10.00
2022-08-07T04:24:03.606Z,10.03
2022-08-07T04:26:33.481Z,9.98
2022-08-07T04:29:00.096Z,9.98
2022-08-07T04:31:39.209Z,10.16
2022-08-07T04:34:23.933Z,10.15
2022-08-07T04:36:54.320Z,10.14
2022-08-07T04:39:25.878Z,10.25
2022-08-07T04:41:53.016Z,10.35
2022-08-07T04:44:19.666Z,10.31
2022-08-07T04:47:11.484Z,10.29
2022-08-07T04:50:11.096Z,10.36
2022-08-07T04:53:04.990Z,10.30
2022-08-07T04:58:13.927Z,10.32
2022-08-07T05:00:08.934Z,10.46
2022-08-07T05:02:20.649Z,10.52
2022-08-07T05:05:12.026Z,10.74
2022-08-07T05:08:03.222Z,10.65
2022-08-07T05:10:41.716Z,10.81
2022-08-07T05:14:52.822Z,10.82
2022-08-07T05:15:59.602Z,10.71
2022-08-07T05:18:34.832Z,10.78
2022-08-07T05:21:04.656Z,11.04
2022-08-07T05:23:39.764Z,10.97
2022-08-07T05:26:18.846Z,11.25
2022-08-07T05:28:54.780Z,11.29
2022-08-07T05:31:34.632Z,11.34
2022-08-07T05:34:05.668Z,11.37
2022-08-07T05:36:40.174Z,11.43
2022-08-07T05:40:05.631Z,11.72
2022-08-07T05:42:02.534Z,11.87
2022-08-07T05:44:34.984Z,11.98
2022-08-07T05:47:11.805Z,11.84
2022-08-07T05:49:52.259Z,12.04
2022-08-07T05:52:20.070Z,12.02
2022-08-07T05:54:56.011Z,12.18
2022-08-07T05:57:30.125Z,12.64
2022-08-07T06:00:01.753Z,12.51
2022-08-07T06:02:31.610Z,13.62
2022-08-07T06:05:05.988Z,14.24
2022-08-07T06:08:14.846Z,14.64
2022-08-07T06:10:23.756Z,14.75
2022-08-07T06:12:50.688Z,14.33
2022-08-07T06:15:20.049Z,14.38
2022-08-07T06:17:50.711Z,15.12
2022-08-07T06:20:32.212Z,15.73
2022-08-07T06:23:45.799Z,17.15
2022-08-07T06:25:59.062Z,16.09
2022-08-07T06:28:27.180Z,16.87
2022-08-07T06:30:54.931Z,17.34
2022-08-07T06:33:23.369Z,17.43
2022-08-07T06:36:12.201Z,17.97
2022-08-07T06:38:37.086Z,17.97
2022-08-07T06:41:12.999Z,18.05
2022-08-07T06:43:46.585Z,19.06
2022-08-07T06:46:31.528Z,19.84
2022-08-07T06:49:04.509Z,19.77
2022-08-07T06:51:36.306Z,20.37
2022-08-07T06:55:33.327Z,21.60
2022-08-07T06:57:08.157Z,20.98
2022-08-07T07:00:13.863Z,19.77
2022-08-07T07:02:54.403Z,19.59
2022-08-07T07:05:14.497Z,19.25
2022-08-07T07:08:06.379Z,20.17
2022-08-07T07:10:34.719Z,21.64
2022-08-07T07:13:10.016Z,22.62
2022-08-07T07:15:43.147Z,22.36
2022-08-07T07:18:47.439Z,21.40
2022-08-07T07:21:27.156Z,21.14
2022-08-07T07:24:12.627Z,22.71
2022-08-07T07:26:49.582Z,22.42
2022-08-07T07:29:56.761Z,21.65
2022-08-07T07:32:12.779Z,22.45
2022-08-07T07:34:45.518Z,22.39
2022-08-07T07:37:21.564Z,22.84
2022-08-07T07:40:04.006Z,23.32
2022-08-07T07:42:42.680Z,23.11
2022-08-07T07:45:16.391Z,23.32
2022-08-07T07:47:52.709Z,23.40
2022-08-07T07:50:32.840Z,21.34
2022-08-07T07:53:05.460Z,23.81
2022-08-07T07:55:54.779Z,24.31
2022-08-07T07:58:29.483Z,25.27
2022-08-07T08:01:02.488Z,24.60
2022-08-07T08:04:05.963Z,24.71
2022-08-07T08:06:35.860Z,24.74
2022-08-07T08:09:05.156Z,25.50
2022-08-07T08:11:59.183Z,24.80
2022-08-07T08:14:24.632Z,25.10
2022-08-07T08:16:55.102Z,25.24
2022-08-07T08:20:19.386Z,24.87
2022-08-07T08:22:34.931Z,25.53
2022-08-07T08:25:41.986Z,26.01
2022-08-07T08:28:12.580Z,25.72
2022-08-07T08:30:51.492Z,23.72
2022-08-07T08:33:28.885Z,26.30
2022-08-07T08:36:02.908Z,26.21
2022-08-07T08:38:41.028Z,25.98
2022-08-07T08:41:56.735Z,25.78
2022-08-07T08:44:36.252Z,26.26
2022-08-07T08:47:21.949Z,26.07
2022-08-07T08:50:35.267Z,24.96
2022-08-07T08:53:19.192Z,26.73
2022-08-07T08:55:59.477Z,26.98
2022-08-07T08:58:54.522Z,27.17
2022-08-07T09:01:29.832Z,26.72
2022-08-07T09:04:09.241Z,28.33
2022-08-07T09:07:01.300Z,27.30
2022-08-07T09:09:43.251Z,27.55
2022-08-07T09:12:31.396Z,27.27
2022-08-07T09:14:58.565Z,28.86
2022-08-07T09:17:33.926Z,27.43
2022-08-07T09:20:35.703Z,27.90
2022-08-07T09:24:33.255Z,28.39
2022-08-07T09:26:20.901Z,27.26
2022-08-07T09:30:05.753Z,27.98
2022-08-07T09:31:49.297Z,27.25
2022-08-07T09:34:29.517Z,26.35
2022-08-07T09:37:14.482Z,27.26
2022-08-07T09:39:53.669Z,26.89
2022-08-07T09:42:55.845Z,28.21
2022-08-07T09:47:51.181Z,27.60
2022-08-07T09:48:55.924Z,28.67
2022-08-07T09:52:16.586Z,27.02
2022-08-07T09:54:44.297Z,29.32
2022-08-07T09:57:24.450Z,28.00
2022-08-07T10:00:03.956Z,27.94
2022-08-07T10:02:55.006Z,29.11
2022-08-07T10:06:10.564Z,28.71
2022-08-07T10:09:02.221Z,30.31
2022-08-07T10:12:02.287Z,30.76
2022-08-07T10:15:08.697Z,28.89
2022-08-07T10:18:01.103Z,30.75
2022-08-07T10:21:08.669Z,30.76
2022-08-07T10:24:06.184Z,28.06
2022-08-07T10:26:53.847Z,31.29
2022-08-07T10:29:45.926Z,27.11
2022-08-07T10:32:59.958Z,30.63
2022-08-07T10:35:55.724Z,30.91
2022-08-07T10:38:49.570Z,32.59
2022-08-07T10:41:46.289Z,31.30
2022-08-07T10:44:28.651Z,31.62
2022-08-07T10:47:11.566Z,28.37
2022-08-07T10:49:51.107Z,28.48
2022-08-07T10:52:42.699Z,28.96
2022-08-07T10:55:32.445Z,28.54
2022-08-07T10:58:17.894Z,29.70
2022-08-07T11:01:15.973Z,28.74
2022-08-07T11:03:55.290Z,30.76
2022-08-07T11:06:50.395Z,29.72
2022-08-07T11:10:09.469Z,28.18
2022-08-07T11:12:31.837Z,32.01
2022-08-07T11:15:14.592Z,29.16
2022-08-07T11:17:53.900Z,27.98
2022-08-07T11:20:26.467Z,29.62
2022-08-07T11:23:03.210Z,31.81
2022-08-07T11:25:47.914Z,28.70
2022-08-07T11:28:21.132Z,28.42
2022-08-07T11:31:20.042Z,28.72
2022-08-07T11:33:59.703Z,28.94
2022-08-07T11:36:52.539Z,30.26
2022-08-07T11:40:01.636Z,29.62
2022-08-07T11:43:04.593Z,30.01
2022-08-07T11:45:54.637Z,29.80
2022-08-07T11:49:50.679Z,31.69
2022-08-07T11:52:01.646Z,29.92
2022-08-07T11:54:57.556Z,32.75
2022-08-07T11:58:00.226Z,33.63
2022-08-07T12:01:02.176Z,29.64
2022-08-07T12:03:52.246Z,30.05
2022-08-07T12:06:40.261Z,30.01
2022-08-07T12:09:23.181Z,30.70
2022-08-07T12:12:09.144Z,29.29
2022-08-07T12:15:08.181Z,30.01
2022-08-07T12:18:08.248Z,30.28
2022-08-07T12:21:15.948Z,31.26
2022-08-07T12:24:12.443Z,32.00
2022-08-07T12:27:13.248Z,29.89
2022-08-07T12:29:56.084Z,29.29
2022-08-07T12:32:42.887Z,28.17
2022-08-07T12:35:13.377Z,30.19
2022-08-07T12:38:11.749Z,29.06
2022-08-07T12:40:50.311Z,31.04
2022-08-07T12:44:04.297Z,29.67
2022-08-07T12:46:26.057Z,30.89
2022-08-07T12:49:39.947Z,28.43
2022-08-07T12:52:17.167Z,28.52
2022-08-07T12:54:59.028Z,32.37
2022-08-07T12:57:38.775Z,30.03
2022-08-07T13:00:16.351Z,30.14
2022-08-07T13:03:55.049Z,30.63
2022-08-07T13:06:54.273Z,28.75
2022-08-07T13:10:28.830Z,28.87
2022-08-07T13:12:56.148Z,27.89
2022-08-07T13:15:47.790Z,27.65
2022-08-07T13:18:39.461Z,28.71
2022-08-07T13:21:51.774Z,27.54
2022-08-07T13:24:29.283Z,27.12
2022-08-07T13:27:05.891Z,27.24
2022-08-07T13:29:52.018Z,27.71
2022-08-07T13:32:32.376Z,28.27
2022-08-07T13:35:09.141Z,27.99
2022-08-07T13:37:58.630Z,27.37
2022-08-07T13:40:42.222Z,27.57
2022-08-07T13:43:12.949Z,28.01
2022-08-07T13:46:12.526Z,26.24
2022-08-07T13:48:40.734Z,25.59
2022-08-07T13:51:26.880Z,25.91
2022-08-07T13:54:03.530Z,25.08
2022-08-07T13:56:35.319Z,26.07
2022-08-07T13:59:32.348Z,25.97
2022-08-07T14:02:10.182Z,26.30
2022-08-07T14:05:01.499Z,26.63
2022-08-07T14:07:33.593Z,26.82
2022-08-07T14:10:16.414Z,25.73
2022-08-07T14:13:00.443Z,25.21
2022-08-07T14:15:40.154Z,25.73
2022-08-07T14:18:28.647Z,25.54
2022-08-07T14:21:21.018Z,26.12
2022-08-07T14:24:04.837Z,26.19
2022-08-07T14:26:50.439Z,25.07
2022-08-07T14:30:05.596Z,25.89
2022-08-07T14:32:15.581Z,26.08
2022-08-07T14:34:46.987Z,25.03
2022-08-07T14:37:17.243Z,25.12
2022-08-07T14:40:15.559Z,25.31
2022-08-07T14:43:01.483Z,25.33
2022-08-07T14:45:46.346Z,25.47
2022-08-07T14:48:21.632Z,25.16
2022-08-07T14:50:56.977Z,24.93
2022-08-07T14:54:08.938Z,24.59
2022-08-07T14:56:30.132Z,25.31
2022-08-07T14:59:01.927Z,25.31
2022-08-07T15:01:50.850Z,24.82
2022-08-07T15:04:19.130Z,25.51
2022-08-07T15:06:48.948Z,25.72
2022-08-07T15:09:57.194Z,25.74
2022-08-07T15:12:26.308Z,25.40
2022-08-07T15:15:21.199Z,24.91
2022-08-07T15:17:57.094Z,24.87
2022-08-07T15:25:15.839Z,24.66
2022-08-07T15:30:06.816Z,25.26
2022-08-07T15:31:58.075Z,25.37
2022-08-07T15:34:37.536Z,25.33
2022-08-07T15:37:27.611Z,25.23
2022-08-07T15:39:58.326Z,25.33
2022-08-07T15:42:47.994Z,25.23
2022-08-07T15:45:20.549Z,25.21
2022-08-07T15:48:01.174Z,24.96
2022-08-07T15:51:02.101Z,24.57
2022-08-07T15:53:51.740Z,25.16
2022-08-07T15:56:24.728Z,25.30
2022-08-07T15:58:58.881Z,25.31
2022-08-07T16:01:38.494Z,24.84
2022-08-07T16:04:15.112Z,24.98
2022-08-07T16:06:50.994Z,25.07
2022-08-07T16:09:42.119Z,25.12
2022-08-07T16:12:31.095Z,24.88
2022-08-07T16:15:55.578Z,24.83
2022-08-07T16:18:49.628Z,24.92
2022-08-07T16:21:53.539Z,24.89
2022-08-07T16:24:33.933Z,24.49
2022-08-07T16:27:19.087Z,24.78
2022-08-07T16:30:30.659Z,24.78
2022-08-07T16:34:05.980Z,24.70
2022-08-07T16:36:20.663Z,24.64
2022-08-07T16:39:16.654Z,24.75
2022-08-07T16:42:14.943Z,24.49
2022-08-07T16:45:15.487Z,24.43
2022-08-07T16:47:51.130Z,24.63
2022-08-07T16:50:38.689Z,24.64
2022-08-07T16:54:01.145Z,24.59
2022-08-07T16:56:18.946Z,24.60
2022-08-07T16:59:10.546Z,24.59
2022-08-07T17:02:08.911Z,24.62
2022-08-07T17:05:00.609Z,24.58
2022-08-07T17:07:51.544Z,24.63
2022-08-07T17:10:43.938Z,24.49
2022-08-07T17:13:41.408Z,24.26
2022-08-07T17:16:29.326Z,24.36
2022-08-07T17:20:02.884Z,24.37
2022-08-07T17:22:36.465Z,24.34
2022-08-07T17:25:47.811Z,24.34
2022-08-07T17:28:19.801Z,24.25
2022-08-07T17:30:59.326Z,24.13
2022-08-07T17:33:39.108Z,24.15
2022-08-07T17:36:30.767Z,24.12
2022-08-07T17:39:15.682Z,24.07
2022-08-07T17:42:03.475Z,24.08
2022-08-07T17:44:51.568Z,23.98
2022-08-07T17:47:54.328Z,24.00
2022-08-07T17:50:30.525Z,23.89
2022-08-07T17:53:06.103Z,23.80
2022-08-07T17:56:00.022Z,23.77
2022-08-07T17:58:40.726Z,23.87
2022-08-07T18:01:36.649Z,23.72
2022-08-07T18:04:30.846Z,23.73
2022-08-07T18:07:20.521Z,23.63
2022-08-07T18:10:06.078Z,23.48
2022-08-07T18:13:15.351Z,23.48
2022-08-07T18:15:59.630Z,23.41
2022-08-07T18:18:39.813Z,23.37
2022-08-07T18:21:41.365Z,23.17
2022-08-07T18:24:33.478Z,23.18
2022-08-07T18:27:23.898Z,23.00
2022-08-07T18:30:43.988Z,22.92
2022-08-07T18:33:55.338Z,22.83
2022-08-07T18:36:33.524Z,22.75
2022-08-07T18:40:06.559Z,22.70
2022-08-07T18:42:39.267Z,22.64
2022-08-07T18:45:44.583Z,22.58
2022-08-07T18:48:09.175Z,22.39
2022-08-07T18:50:56.984Z,22.31
2022-08-07T18:53:42.750Z,22.15
2022-08-07T18:56:31.991Z,22.12
2022-08-07T18:59:46.790Z,21.98
2022-08-07T19:02:36.352Z,21.92
2022-08-07T19:05:16.030Z,21.80
2022-08-07T19:08:05.427Z,21.77
2022-08-07T19:10:51.877Z,21.71
2022-08-07T19:13:27.990Z,21.62
2022-08-07T19:17:00.404Z,21.59
2022-08-07T19:19:54.559Z,21.50
2022-08-07T19:22:36.119Z,21.29
2022-08-07T19:25:06.727Z,21.14
2022-08-07T19:28:58.269Z,20.87
2022-08-07T19:31:00.549Z,20.74
2022-08-07T19:33:34.795Z,20.32
2022-08-07T19:36:03.021Z,20.15
2022-08-07T19:38:33.548Z,19.88
2022-08-07T19:41:01.901Z,19.75
2022-08-07T19:43:50.052Z,19.61
2022-08-07T19:46:26.793Z,19.48
2022-08-07T19:49:01.425Z,19.21
2022-08-07T19:51:51.234Z,19.05
2022-08-07T19:54:43.866Z,18.92
2022-08-07T19:58:01.572Z,18.71
2022-08-07T20:00:09.038Z,18.46
2022-08-07T20:02:52.206Z,18.27
2022-08-07T20:05:25.305Z,18.39
2022-08-07T20:07:59.226Z,18.25
2022-08-07T20:10:36.757Z,18.31
2022-08-07T20:13:26.807Z,18.06
2022-08-07T20:15:57.603Z,17.87
2022-08-07T20:18:32.990Z,17.78
2022-08-07T20:21:03.393Z,17.64
2022-08-07T20:23:53.822Z,17.56
2022-08-07T20:26:32.736Z,17.42
2022-08-07T20:29:46.623Z,17.39
2022-08-07T20:32:01.859Z,17.17
2022-08-07T20:34:49.237Z,17.16
2022-08-07T20:37:22.692Z,17.09
2022-08-07T20:40:02.500Z,17.10
2022-08-07T20:42:35.217Z,16.93
2022-08-07T20:45:32.755Z,16.81
2022-08-07T20:47:58.317Z,16.78
2022-08-07T20:50:30.349Z,16.65
2022-08-07T20:52:57.010Z,16.58
2022-08-07T20:55:25.672Z,16.50
2022-08-07T20:58:04.057Z,16.54
2022-08-07T21:00:47.096Z,16.34
2022-08-07T21:03:19.257Z,16.35
2022-08-07T21:06:21.788Z,16.26
2022-08-07T21:09:14.107Z,16.21
2022-08-07T21:11:50.237Z,16.18
2022-08-07T21:14:34.456Z,16.15
2022-08-07T21:18:03.777Z,16.10
2022-08-07T21:20:00.779Z,16.00
2022-08-07T21:22:53.347Z,16.13
2022-08-07T21:25:29.925Z,16.00
2022-08-07T21:28:49.010Z,15.96
2022-08-07T21:31:24.849Z,15.90
2022-08-07T21:34:48.542Z,16.05
2022-08-07T21:37:22.672Z,16.12
2022-08-07T21:39:55.000Z,16.14
2022-08-07T21:42:42.991Z,16.06
2022-08-07T21:46:08.438Z,16.06
2022-08-07T21:48:28.231Z,15.88
2022-08-07T21:51:20.150Z,15.77
2022-08-07T21:53:55.123Z,15.60
2022-08-07T21:56:47.097Z,15.60
2022-08-07T21:59:20.769Z,15.32
2022-08-07T22:02:07.123Z,15.27
2022-08-07T22:04:51.093Z,15.19
2022-08-07T22:07:31.426Z,15.26
2022-08-07T22:10:06.144Z,15.23
2022-08-07T22:12:40.890Z,15.14
2022-08-07T22:16:43.805Z,15.11
2022-08-07T22:18:14.888Z,15.04
2022-08-07T22:20:55.773Z,14.97
2022-08-07T22:23:40.495Z,14.87
2022-08-07T22:26:49.595Z,14.82
2022-08-07T22:29:47.354Z,14.78
2022-08-07T22:32:34.844Z,14.60
2022-08-07T22:35:04.875Z,14.53
2022-08-07T22:38:04.423Z,14.56
2022-08-07T22:41:03.412Z,14.52
2022-08-07T22:43:44.088Z,14.49
2022-08-07T22:46:55.980Z,14.22
2022-08-07T22:49:27.920Z,14.18
2022-08-07T22:52:19.599Z,14.14
2022-08-07T22:55:30.849Z,14.11
2022-08-07T22:58:37.897Z,14.08
2022-08-07T23:01:22.556Z,13.89
2022-08-07T23:04:29.939Z,13.93
2022-08-07T23:07:41.360Z,14.01
2022-08-07T23:10:37.627Z,13.87
2022-08-07T23:13:49.063Z,13.82
2022-08-07T23:16:48.606Z,13.82
2022-08-07T23:20:02.765Z,13.77
2022-08-07T23:23:14.455Z,13.88
2022-08-07T23:26:05.606Z,13.85
2022-08-07T23:29:01.824Z,13.74
2022-08-07T23:32:49.067Z,13.78
2022-08-07T23:34:37.578Z,13.81
2022-08-07T23:37:20.311Z,13.82
2022-08-07T23:40:07.620Z,13.72
2022-08-07T23:43:16.980Z,13.60
2022-08-07T23:46:10.728Z,13.59
2022-08-07T23:49:00.026Z,13.56
2022-08-07T23:52:58.787Z,13.54
2022-08-07T23:54:46.353Z,13.38
2022-08-07T23:57:34.833Z,13.48
